sensor_id;sensor_type;location;lat;lon;timestamp;P1;durP1;ratioP1;P2;durP2;ratioP2
64242;SDS011;50573;51.512;5.386;2023-07-16T00:03:57;7.25;;;2.72;;
64242;SDS011;50573;51.512;5.386;2023-07-16T00:14:01;8.02;;;3.08;;
64242;SDS011;50573;51.512;5.386;2023-07-16T00:24:04;12.63;;;3.20;;
64242;SDS011;50573;51.512;5.386;2023-07-16T00:34:09;8.88;;;2.97;;
64242;SDS011;50573;51.512;5.386;2023-07-16T00:44:14;7.90;;;2.80;;
64242;SDS011;50573;51.512;5.386;2023-07-16T00:54:18;11.55;;;3.28;;
64242;SDS011;50573;51.512;5.386;2023-07-16T01:04:22;8.05;;;3.40;;
64242;SDS011;50573;51.512;5.386;2023-07-16T01:14:26;12.52;;;3.50;;
64242;SDS011;50573;51.512;5.386;2023-07-16T01:24:36;16.95;;;4.22;;
64242;SDS011;50573;51.512;5.386;2023-07-16T01:35:00;10.35;;;3.47;;
64242;SDS011;50573;51.512;5.386;2023-07-16T01:45:05;10.18;;;3.40;;
64242;SDS011;50573;51.512;5.386;2023-07-16T01:55:10;8.60;;;4.20;;
64242;SDS011;50573;51.512;5.386;2023-07-16T02:05:14;10.85;;;4.03;;
64242;SDS011;50573;51.512;5.386;2023-07-16T02:15:19;10.15;;;4.40;;
64242;SDS011;50573;51.512;5.386;2023-07-16T02:25:22;11.13;;;4.28;;
64242;SDS011;50573;51.512;5.386;2023-07-16T02:35:26;12.68;;;4.00;;
64242;SDS011;50573;51.512;5.386;2023-07-16T02:45:29;13.35;;;5.00;;
64242;SDS011;50573;51.512;5.386;2023-07-16T02:55:34;14.05;;;5.28;;
64242;SDS011;50573;51.512;5.386;2023-07-16T03:15:41;13.48;;;5.07;;
64242;SDS011;50573;51.512;5.386;2023-07-16T03:25:44;12.95;;;4.35;;
64242;SDS011;50573;51.512;5.386;2023-07-16T03:35:50;12.20;;;5.10;;
64242;SDS011;50573;51.512;5.386;2023-07-16T03:45:53;9.40;;;4.75;;
64242;SDS011;50573;51.512;5.386;2023-07-16T03:55:58;11.57;;;4.65;;
64242;SDS011;50573;51.512;5.386;2023-07-16T04:06:02;9.35;;;4.13;;
64242;SDS011;50573;51.512;5.386;2023-07-16T04:16:07;12.17;;;4.80;;
64242;SDS011;50573;51.512;5.386;2023-07-16T04:26:10;13.30;;;4.88;;
64242;SDS011;50573;51.512;5.386;2023-07-16T04:36:15;14.15;;;5.63;;
64242;SDS011;50573;51.512;5.386;2023-07-16T04:46:18;16.15;;;5.35;;
64242;SDS011;50573;51.512;5.386;2023-07-16T04:56:23;13.98;;;5.28;;
64242;SDS011;50573;51.512;5.386;2023-07-16T05:16:30;15.25;;;5.93;;
64242;SDS011;50573;51.512;5.386;2023-07-16T05:36:38;10.55;;;6.30;;
64242;SDS011;50573;51.512;5.386;2023-07-16T05:46:41;16.17;;;5.47;;
64242;SDS011;50573;51.512;5.386;2023-07-16T05:56:45;19.98;;;6.55;;
64242;SDS011;50573;51.512;5.386;2023-07-16T06:06:48;12.38;;;6.57;;
64242;SDS011;50573;51.512;5.386;2023-07-16T06:16:55;13.23;;;6.95;;
64242;SDS011;50573;51.512;5.386;2023-07-16T06:26:58;14.65;;;6.10;;
64242;SDS011;50573;51.512;5.386;2023-07-16T06:37:03;17.27;;;6.18;;
64242;SDS011;50573;51.512;5.386;2023-07-16T06:47:07;17.55;;;6.75;;
64242;SDS011;50573;51.512;5.386;2023-07-16T06:57:11;12.40;;;7.05;;
64242;SDS011;50573;51.512;5.386;2023-07-16T07:07:14;14.77;;;7.00;;
64242;SDS011;50573;51.512;5.386;2023-07-16T07:17:19;16.13;;;7.20;;
64242;SDS011;50573;51.512;5.386;2023-07-16T07:27:22;39.92;;;15.05;;
64242;SDS011;50573;51.512;5.386;2023-07-16T07:37:26;16.75;;;7.28;;
64242;SDS011;50573;51.512;5.386;2023-07-16T07:47:30;15.00;;;6.82;;
64242;SDS011;50573;51.512;5.386;2023-07-16T07:57:34;15.33;;;6.93;;
64242;SDS011;50573;51.512;5.386;2023-07-16T08:07:38;16.65;;;6.95;;
64242;SDS011;50573;51.512;5.386;2023-07-16T08:17:42;12.50;;;7.03;;
64242;SDS011;50573;51.512;5.386;2023-07-16T08:27:46;10.30;;;5.80;;
64242;SDS011;50573;51.512;5.386;2023-07-16T08:37:51;14.67;;;6.47;;
64242;SDS011;50573;51.512;5.386;2023-07-16T08:47:54;18.15;;;6.13;;
64242;SDS011;50573;51.512;5.386;2023-07-16T09:08:02;11.50;;;5.32;;
64242;SDS011;50573;51.512;5.386;2023-07-16T09:18:06;8.17;;;4.80;;
64242;SDS011;50573;51.512;5.386;2023-07-16T09:28:12;10.63;;;5.60;;
64242;SDS011;50573;51.512;5.386;2023-07-16T09:38:17;11.88;;;5.32;;
64242;SDS011;50573;51.512;5.386;2023-07-16T09:48:21;8.90;;;4.80;;
64242;SDS011;50573;51.512;5.386;2023-07-16T09:58:25;10.43;;;4.73;;
64242;SDS011;50573;51.512;5.386;2023-07-16T10:08:32;11.95;;;5.55;;
64242;SDS011;50573;51.512;5.386;2023-07-16T10:18:38;9.48;;;4.53;;
64242;SDS011;50573;51.512;5.386;2023-07-16T10:28:42;9.90;;;5.20;;
64242;SDS011;50573;51.512;5.386;2023-07-16T10:38:46;9.70;;;4.93;;
64242;SDS011;50573;51.512;5.386;2023-07-16T10:48:50;8.77;;;4.80;;
64242;SDS011;50573;51.512;5.386;2023-07-16T10:58:54;6.53;;;4.18;;
64242;SDS011;50573;51.512;5.386;2023-07-16T11:09:05;11.80;;;4.93;;
64242;SDS011;50573;51.512;5.386;2023-07-16T11:19:10;10.88;;;5.75;;
64242;SDS011;50573;51.512;5.386;2023-07-16T11:29:13;10.05;;;5.28;;
64242;SDS011;50573;51.512;5.386;2023-07-16T11:39:18;7.38;;;4.90;;
64242;SDS011;50573;51.512;5.386;2023-07-16T11:49:21;10.82;;;3.88;;
64242;SDS011;50573;51.512;5.386;2023-07-16T12:09:29;10.52;;;5.80;;
64242;SDS011;50573;51.512;5.386;2023-07-16T12:19:33;11.25;;;5.05;;
64242;SDS011;50573;51.512;5.386;2023-07-16T12:29:36;9.48;;;4.57;;
64242;SDS011;50573;51.512;5.386;2023-07-16T12:39:41;12.55;;;5.50;;
64242;SDS011;50573;51.512;5.386;2023-07-16T12:49:44;12.57;;;5.43;;
64242;SDS011;50573;51.512;5.386;2023-07-16T12:59:49;8.87;;;4.33;;
64242;SDS011;50573;51.512;5.386;2023-07-16T13:09:52;7.22;;;3.92;;
64242;SDS011;50573;51.512;5.386;2023-07-16T13:20:16;7.40;;;3.03;;
64242;SDS011;50573;51.512;5.386;2023-07-16T13:30:21;4.68;;;2.92;;
64242;SDS011;50573;51.512;5.386;2023-07-16T13:50:29;6.68;;;2.85;;
64242;SDS011;50573;51.512;5.386;2023-07-16T14:00:33;9.55;;;4.07;;
64242;SDS011;50573;51.512;5.386;2023-07-16T14:10:36;13.02;;;8.68;;
64242;SDS011;50573;51.512;5.386;2023-07-16T14:30:43;7.72;;;3.65;;
64242;SDS011;50573;51.512;5.386;2023-07-16T14:40:49;8.73;;;5.28;;
64242;SDS011;50573;51.512;5.386;2023-07-16T14:50:52;9.02;;;4.63;;
64242;SDS011;50573;51.512;5.386;2023-07-16T15:11:01;4.88;;;2.85;;
64242;SDS011;50573;51.512;5.386;2023-07-16T15:21:06;4.68;;;2.42;;
64242;SDS011;50573;51.512;5.386;2023-07-16T15:31:10;3.70;;;2.08;;
64242;SDS011;50573;51.512;5.386;2023-07-16T15:41:16;8.30;;;3.58;;
64242;SDS011;50573;51.512;5.386;2023-07-16T15:51:21;4.53;;;2.50;;
64242;SDS011;50573;51.512;5.386;2023-07-16T16:01:27;4.30;;;2.20;;
64242;SDS011;50573;51.512;5.386;2023-07-16T16:11:30;3.88;;;2.35;;
64242;SDS011;50573;51.512;5.386;2023-07-16T16:31:37;3.72;;;2.05;;
64242;SDS011;50573;51.512;5.386;2023-07-16T16:41:42;4.15;;;1.80;;
64242;SDS011;50573;51.512;5.386;2023-07-16T16:51:45;8.63;;;2.45;;
64242;SDS011;50573;51.512;5.386;2023-07-16T17:01:50;2.95;;;1.30;;
64242;SDS011;50573;51.512;5.386;2023-07-16T17:11:53;6.55;;;1.77;;
64242;SDS011;50573;51.512;5.386;2023-07-16T17:21:57;2.72;;;1.35;;
64242;SDS011;50573;51.512;5.386;2023-07-16T17:32:00;3.50;;;1.75;;
64242;SDS011;50573;51.512;5.386;2023-07-16T17:42:06;3.22;;;1.25;;
64242;SDS011;50573;51.512;5.386;2023-07-16T17:52:10;2.67;;;1.10;;
64242;SDS011;50573;51.512;5.386;2023-07-16T18:02:15;1.88;;;1.27;;
64242;SDS011;50573;51.512;5.386;2023-07-16T18:12:18;4.03;;;1.83;;
64242;SDS011;50573;51.512;5.386;2023-07-16T18:22:23;2.47;;;1.20;;
64242;SDS011;50573;51.512;5.386;2023-07-16T18:32:31;3.08;;;1.48;;
64242;SDS011;50573;51.512;5.386;2023-07-16T18:42:36;3.53;;;1.50;;
64242;SDS011;50573;51.512;5.386;2023-07-16T18:52:40;1.92;;;1.40;;
64242;SDS011;50573;51.512;5.386;2023-07-16T19:02:44;2.80;;;1.80;;
64242;SDS011;50573;51.512;5.386;2023-07-16T19:12:47;5.15;;;1.70;;
64242;SDS011;50573;51.512;5.386;2023-07-16T19:22:52;4.60;;;2.70;;
64242;SDS011;50573;51.512;5.386;2023-07-16T19:32:55;1.75;;;1.63;;
64242;SDS011;50573;51.512;5.386;2023-07-16T19:42:59;3.13;;;1.73;;
64242;SDS011;50573;51.512;5.386;2023-07-16T19:53:02;4.13;;;1.80;;
64242;SDS011;50573;51.512;5.386;2023-07-16T20:03:07;4.17;;;1.77;;
64242;SDS011;50573;51.512;5.386;2023-07-16T20:13:12;4.40;;;2.00;;
64242;SDS011;50573;51.512;5.386;2023-07-16T20:23:17;6.20;;;2.33;;
64242;SDS011;50573;51.512;5.386;2023-07-16T20:33:20;6.70;;;3.30;;
64242;SDS011;50573;51.512;5.386;2023-07-16T20:43:24;9.65;;;3.58;;
64242;SDS011;50573;51.512;5.386;2023-07-16T20:53:27;4.90;;;2.97;;
64242;SDS011;50573;51.512;5.386;2023-07-16T21:03:32;5.10;;;3.13;;
64242;SDS011;50573;51.512;5.386;2023-07-16T21:13:35;5.43;;;3.25;;
64242;SDS011;50573;51.512;5.386;2023-07-16T21:23:40;6.38;;;2.72;;
64242;SDS011;50573;51.512;5.386;2023-07-16T21:33:43;8.88;;;3.70;;
64242;SDS011;50573;51.512;5.386;2023-07-16T21:43:47;9.27;;;4.10;;
64242;SDS011;50573;51.512;5.386;2023-07-16T22:03:54;6.88;;;4.20;;
64242;SDS011;50573;51.512;5.386;2023-07-16T22:24:03;10.00;;;4.87;;
64242;SDS011;50573;51.512;5.386;2023-07-16T22:34:07;8.27;;;4.03;;
64242;SDS011;50573;51.512;5.386;2023-07-16T22:44:11;13.80;;;4.53;;
64242;SDS011;50573;51.512;5.386;2023-07-16T22:54:14;10.05;;;4.40;;
64242;SDS011;50573;51.512;5.386;2023-07-16T23:04:19;8.45;;;3.53;;
64242;SDS011;50573;51.512;5.386;2023-07-16T23:24:26;7.38;;;3.42;;
64242;SDS011;50573;51.512;5.386;2023-07-16T23:44:33;5.38;;;3.60;;
